createdAt,value
2019-02-10T00:00:18.354Z,1.13
2019-02-10T00:02:46.650Z,1.40
2019-02-10T00:05:15.027Z,1.20
2019-02-10T00:07:43.411Z,2.20
2019-02-10T00:10:11.708Z,1.53
2019-02-10T00:12:40.051Z,1.50
2019-02-10T00:15:08.786Z,1.43
2019-02-10T00:17:37.142Z,1.73
2019-02-10T00:20:05.823Z,1.47
2019-02-10T00:22:34.175Z,1.20
2019-02-10T00:25:02.584Z,1.10
2019-02-10T00:27:30.948Z,1.83
2019-02-10T00:29:59.302Z,1.33
2019-02-10T00:32:27.634Z,0.97
2019-02-10T00:34:56.013Z,0.97
2019-02-10T00:37:24.419Z,1.03
2019-02-10T00:39:52.775Z,1.43
2019-02-10T00:42:21.163Z,2.73
2019-02-10T00:44:49.569Z,0.97
2019-02-10T00:47:18.016Z,1.27
2019-02-10T00:49:46.391Z,1.00
2019-02-10T00:52:14.749Z,2.00
2019-02-10T00:54:43.037Z,1.07
2019-02-10T00:57:11.419Z,1.40
2019-02-10T00:59:39.779Z,1.57
2019-02-10T01:02:08.359Z,1.03
2019-02-10T01:04:36.780Z,1.20
2019-02-10T01:07:05.146Z,0.90
2019-02-10T01:09:33.643Z,1.43
2019-02-10T01:12:01.994Z,1.50
2019-02-10T01:14:30.366Z,1.13
2019-02-10T01:16:58.653Z,1.47
2019-02-10T01:19:27.012Z,1.80
2019-02-10T01:21:55.395Z,1.10
2019-02-10T01:24:23.956Z,1.43
2019-02-10T01:26:52.240Z,1.10
2019-02-10T01:29:20.778Z,1.20
2019-02-10T01:31:49.128Z,0.70
2019-02-10T01:34:17.582Z,1.37
2019-02-10T01:36:49.858Z,1.20
2019-02-10T01:39:17.407Z,0.93
2019-02-10T01:41:45.762Z,1.17
2019-02-10T01:44:14.140Z,0.90
2019-02-10T01:46:42.608Z,1.50
2019-02-10T01:49:10.996Z,1.00
2019-02-10T01:51:39.270Z,2.10
2019-02-10T01:54:07.581Z,1.03
2019-02-10T01:56:35.926Z,0.87
2019-02-10T01:59:04.366Z,1.20
2019-02-10T02:01:32.718Z,1.00
2019-02-10T02:04:01.014Z,0.93
2019-02-10T02:06:29.302Z,1.57
2019-02-10T02:08:57.657Z,0.73
2019-02-10T02:11:26.071Z,0.80
2019-02-10T02:13:54.439Z,0.80
2019-02-10T02:16:22.848Z,1.00
2019-02-10T02:18:51.231Z,1.57
2019-02-10T02:21:19.511Z,0.97
2019-02-10T02:23:47.811Z,1.07
2019-02-10T02:26:16.162Z,0.80
2019-02-10T02:28:44.815Z,1.70
2019-02-10T02:31:13.629Z,1.63
2019-02-10T02:33:42.101Z,0.70
2019-02-10T02:36:10.493Z,1.07
2019-02-10T02:38:38.797Z,0.80
2019-02-10T02:41:07.167Z,1.07
2019-02-10T02:43:35.645Z,1.10
2019-02-10T02:46:04.005Z,0.90
2019-02-10T02:48:32.360Z,1.10
2019-02-10T02:51:01.069Z,1.20
2019-02-10T02:53:29.595Z,0.70
2019-02-10T02:55:57.957Z,0.70
2019-02-10T02:58:26.331Z,0.90
2019-02-10T03:00:54.721Z,1.20
2019-02-10T03:03:23.081Z,1.10
2019-02-10T03:05:51.508Z,0.90
2019-02-10T03:08:19.858Z,1.40
2019-02-10T03:10:48.150Z,1.10
2019-02-10T03:13:16.421Z,1.10
2019-02-10T03:15:44.798Z,0.70
2019-02-10T03:18:13.098Z,0.73
2019-02-10T03:20:41.480Z,1.33
2019-02-10T03:23:09.855Z,0.90
2019-02-10T03:25:38.236Z,1.10
2019-02-10T03:28:06.592Z,0.93
2019-02-10T03:30:34.956Z,1.03
2019-02-10T03:33:03.341Z,0.73
2019-02-10T03:35:31.921Z,0.73
2019-02-10T03:38:00.211Z,0.80
2019-02-10T03:40:28.503Z,0.80
2019-02-10T03:42:56.875Z,0.67
2019-02-10T03:45:25.222Z,0.90
2019-02-10T03:47:53.643Z,0.80
2019-02-10T03:50:22.065Z,0.90
2019-02-10T03:52:50.499Z,1.23
2019-02-10T03:55:18.964Z,0.77
2019-02-10T03:57:47.464Z,1.00
2019-02-10T04:00:15.832Z,0.80
2019-02-10T04:02:44.207Z,0.70
2019-02-10T04:05:12.486Z,1.40
2019-02-10T04:07:41.000Z,0.77
2019-02-10T04:10:10.206Z,1.53
2019-02-10T04:12:38.506Z,0.87
2019-02-10T04:15:07.591Z,0.80
2019-02-10T04:17:36.021Z,0.80
2019-02-10T04:20:06.557Z,1.23
2019-02-10T04:22:34.922Z,0.90
2019-02-10T04:25:03.210Z,0.80
2019-02-10T04:27:31.717Z,0.70
2019-02-10T04:30:00.090Z,0.80
2019-02-10T04:32:28.536Z,0.73
2019-02-10T04:34:56.908Z,0.60
2019-02-10T04:37:25.280Z,0.60
2019-02-10T04:39:53.656Z,0.60
2019-02-10T04:42:21.950Z,0.77
2019-02-10T04:44:50.340Z,0.60
2019-02-10T04:47:18.716Z,0.70
2019-02-10T04:49:47.089Z,0.70
2019-02-10T04:52:15.444Z,0.93
2019-02-10T04:54:43.830Z,0.67
2019-02-10T04:57:12.222Z,0.80
2019-02-10T04:59:40.509Z,0.67
2019-02-10T05:02:09.012Z,0.70
2019-02-10T05:04:37.367Z,0.80
2019-02-10T05:07:05.730Z,0.70
2019-02-10T05:09:34.019Z,0.70
2019-02-10T05:12:02.415Z,0.60
2019-02-10T05:14:30.766Z,0.80
2019-02-10T05:16:59.139Z,0.77
2019-02-10T05:19:27.635Z,0.80
2019-02-10T05:21:56.026Z,1.00
2019-02-10T05:24:24.373Z,0.87
2019-02-10T05:26:52.740Z,0.80
2019-02-10T05:29:21.263Z,0.80
2019-02-10T05:31:49.646Z,0.70
2019-02-10T05:34:17.990Z,0.80
2019-02-10T05:36:46.347Z,0.60
2019-02-10T05:39:14.648Z,1.30
2019-02-10T05:41:43.018Z,0.80
2019-02-10T05:44:11.369Z,0.70
2019-02-10T05:46:39.758Z,0.80
2019-02-10T05:49:08.120Z,0.87
2019-02-10T05:51:36.490Z,0.80
2019-02-10T05:54:04.852Z,0.80
2019-02-10T05:56:33.214Z,0.70
2019-02-10T05:59:01.513Z,0.80
2019-02-10T06:02:05.859Z,0.90
2019-02-10T06:04:40.050Z,0.70
2019-02-10T06:07:17.494Z,0.83
2019-02-10T06:09:45.857Z,0.50
2019-02-10T06:12:14.157Z,0.60
2019-02-10T06:14:42.451Z,0.50
2019-02-10T06:17:10.949Z,0.80
2019-02-10T06:19:39.265Z,0.70
2019-02-10T06:22:07.630Z,0.70
2019-02-10T06:24:36.006Z,0.70
2019-02-10T06:27:04.359Z,0.60
2019-02-10T06:29:32.695Z,0.90
2019-02-10T06:32:01.065Z,0.87
2019-02-10T06:34:29.431Z,0.73
2019-02-10T06:36:57.918Z,0.60
2019-02-10T06:39:26.270Z,0.70
2019-02-10T06:41:54.626Z,0.60
2019-02-10T06:44:23.001Z,0.80
2019-02-10T06:46:51.281Z,0.80
2019-02-10T06:49:19.671Z,0.60
2019-02-10T06:51:48.037Z,0.77
2019-02-10T06:54:16.387Z,0.60
2019-02-10T06:56:44.719Z,0.70
2019-02-10T06:59:14.710Z,0.60
2019-02-10T07:01:44.660Z,0.67
2019-02-10T07:04:15.287Z,0.50
2019-02-10T07:06:43.584Z,0.60
2019-02-10T07:09:11.868Z,0.60
2019-02-10T07:11:40.248Z,0.60
2019-02-10T07:14:20.436Z,0.57
2019-02-10T07:16:52.226Z,0.67
2019-02-10T07:19:57.359Z,0.63
2019-02-10T07:22:34.692Z,0.50
2019-02-10T07:25:15.259Z,0.60
2019-02-10T07:27:48.510Z,0.60
2019-02-10T07:30:20.070Z,0.57
2019-02-10T07:32:54.289Z,0.50
2019-02-10T07:35:43.292Z,0.50
2019-02-10T07:38:38.541Z,0.53
2019-02-10T07:41:23.963Z,0.60
2019-02-10T07:44:18.309Z,0.60
2019-02-10T07:46:52.876Z,0.60
2019-02-10T07:49:39.719Z,0.60
2019-02-10T07:52:14.256Z,0.67
2019-02-10T07:54:51.567Z,0.77
2019-02-10T07:57:25.721Z,0.50
2019-02-10T08:00:09.391Z,0.60
2019-02-10T08:02:49.302Z,0.50
2019-02-10T08:05:26.921Z,0.73
2019-02-10T08:08:10.514Z,0.50
2019-02-10T08:10:51.189Z,0.60
2019-02-10T08:13:33.164Z,0.47
2019-02-10T08:16:28.430Z,0.50
2019-02-10T08:19:21.103Z,0.50
2019-02-10T08:22:13.518Z,0.40
2019-02-10T08:24:45.099Z,0.53
2019-02-10T08:27:19.463Z,0.47
2019-02-10T08:29:53.866Z,0.50
2019-02-10T08:32:31.626Z,0.50
2019-02-10T08:35:19.967Z,0.50
2019-02-10T08:38:12.678Z,0.40
2019-02-10T08:40:53.311Z,0.47
2019-02-10T08:43:25.003Z,0.40
2019-02-10T08:45:59.697Z,0.33
2019-02-10T08:48:52.585Z,0.80
2019-02-10T08:51:24.411Z,0.50
2019-02-10T08:53:52.775Z,0.60
2019-02-10T08:56:21.111Z,0.50
2019-02-10T08:58:49.473Z,0.47
2019-02-10T09:01:17.839Z,0.63
2019-02-10T09:03:46.123Z,0.60
2019-02-10T09:06:14.506Z,0.60
2019-02-10T09:08:42.869Z,0.60
2019-02-10T09:11:11.262Z,0.70
2019-02-10T09:13:39.613Z,0.47
2019-02-10T09:16:08.102Z,0.40
2019-02-10T09:18:36.475Z,0.40
2019-02-10T09:21:04.778Z,0.53
2019-02-10T09:23:33.184Z,0.50
2019-02-10T09:26:01.570Z,0.47
2019-02-10T09:28:29.951Z,0.40
2019-02-10T09:30:58.377Z,0.50
2019-02-10T09:33:26.759Z,0.40
2019-02-10T09:35:55.239Z,0.50
2019-02-10T09:38:23.625Z,0.40
2019-02-10T09:40:52.296Z,0.50
2019-02-10T09:43:20.611Z,0.43
2019-02-10T09:45:48.923Z,0.30
2019-02-10T09:48:17.283Z,0.30
2019-02-10T09:50:45.656Z,0.30
2019-02-10T09:53:13.941Z,0.40
2019-02-10T09:55:42.327Z,0.40
2019-02-10T09:58:10.687Z,0.40
2019-02-10T10:00:39.082Z,0.50
2019-02-10T10:03:07.443Z,0.53
2019-02-10T10:05:35.762Z,0.40
2019-02-10T10:08:04.111Z,0.40
2019-02-10T10:10:32.419Z,0.50
2019-02-10T10:13:00.813Z,0.43
2019-02-10T10:15:29.168Z,0.60
2019-02-10T10:17:57.477Z,0.80
2019-02-10T10:20:25.965Z,0.60
2019-02-10T10:22:54.378Z,0.80
2019-02-10T10:25:22.780Z,0.90
2019-02-10T10:27:51.168Z,0.97
2019-02-10T10:30:21.975Z,1.20
2019-02-10T10:32:50.383Z,1.27
2019-02-10T10:35:18.777Z,1.50
2019-02-10T10:37:47.136Z,1.90
2019-02-10T10:40:15.462Z,1.80
2019-02-10T10:42:43.804Z,2.20
2019-02-10T10:45:13.919Z,2.07
2019-02-10T10:47:42.464Z,2.30
2019-02-10T10:50:14.106Z,2.40
2019-02-10T10:52:42.504Z,2.50
2019-02-10T10:55:12.369Z,2.30
2019-02-10T10:57:40.706Z,2.60
2019-02-10T11:00:14.504Z,2.13
2019-02-10T11:02:42.889Z,2.67
2019-02-10T11:05:11.302Z,1.93
2019-02-10T11:07:39.658Z,2.30
2019-02-10T11:10:10.735Z,2.13
2019-02-10T11:12:39.052Z,1.97
2019-02-10T11:15:15.290Z,2.87
2019-02-10T11:17:43.579Z,2.00
2019-02-10T11:20:12.718Z,1.90
2019-02-10T11:22:41.217Z,1.57
2019-02-10T11:25:11.069Z,2.27
2019-02-10T11:27:39.438Z,2.27
2019-02-10T11:30:12.514Z,1.63
2019-02-10T11:32:41.132Z,1.53
2019-02-10T11:35:09.699Z,1.50
2019-02-10T11:37:38.066Z,1.83
2019-02-10T11:40:11.428Z,1.40
2019-02-10T11:42:39.870Z,1.37
2019-02-10T11:45:12.835Z,1.70
2019-02-10T11:47:41.212Z,1.57
2019-02-10T11:50:13.506Z,1.60
2019-02-10T11:52:42.064Z,2.50
2019-02-10T11:55:10.854Z,1.40
2019-02-10T11:57:39.202Z,1.43
2019-02-10T12:00:17.860Z,2.20
2019-02-10T12:02:46.271Z,1.53
2019-02-10T12:05:14.637Z,1.53
2019-02-10T12:07:43.012Z,1.23
2019-02-10T12:10:12.613Z,2.20
2019-02-10T12:12:41.029Z,1.20
2019-02-10T12:15:11.984Z,1.33
2019-02-10T12:17:40.395Z,1.60
2019-02-10T12:20:11.120Z,1.20
2019-02-10T12:22:39.499Z,1.10
2019-02-10T12:25:09.376Z,0.90
2019-02-10T12:27:37.755Z,0.60
2019-02-10T12:30:17.102Z,1.07
2019-02-10T12:32:45.480Z,0.80
2019-02-10T12:35:13.853Z,0.80
2019-02-10T12:37:42.244Z,0.93
2019-02-10T12:40:11.749Z,0.90
2019-02-10T12:42:40.104Z,0.77
2019-02-10T12:45:10.428Z,0.70
2019-02-10T12:47:38.813Z,0.63
2019-02-10T12:50:12.336Z,0.70
2019-02-10T12:52:40.688Z,0.43
2019-02-10T12:55:10.681Z,0.50
2019-02-10T12:57:39.035Z,0.70
2019-02-10T13:00:12.844Z,1.00
2019-02-10T13:02:41.278Z,0.40
2019-02-10T13:05:09.670Z,0.50
2019-02-10T13:07:38.014Z,0.57
2019-02-10T13:10:12.418Z,0.60
2019-02-10T13:12:40.880Z,0.50
2019-02-10T13:15:10.594Z,0.70
2019-02-10T13:17:39.671Z,0.83
2019-02-10T13:20:14.269Z,0.87
2019-02-10T13:22:42.640Z,0.70
2019-02-10T13:25:12.025Z,0.30
2019-02-10T13:27:41.071Z,1.20
2019-02-10T13:30:16.631Z,0.50
2019-02-10T13:32:45.140Z,0.40
2019-02-10T13:35:13.494Z,0.50
2019-02-10T13:37:42.298Z,0.50
2019-02-10T13:40:16.628Z,0.40
2019-02-10T13:42:44.155Z,0.50
2019-02-10T13:45:12.713Z,0.60
2019-02-10T13:47:41.356Z,0.50
2019-02-10T13:50:15.568Z,0.47
2019-02-10T13:52:43.935Z,0.70
2019-02-10T13:55:13.771Z,1.00
2019-02-10T13:57:42.369Z,0.30
2019-02-10T14:00:16.292Z,0.40
2019-02-10T14:02:44.584Z,0.50
2019-02-10T14:05:13.218Z,0.40
2019-02-10T14:07:41.687Z,0.30
2019-02-10T14:10:14.909Z,0.70
2019-02-10T14:12:44.111Z,0.43
2019-02-10T14:15:19.662Z,0.30
2019-02-10T14:17:48.058Z,0.53
2019-02-10T14:20:17.848Z,0.30
2019-02-10T14:22:46.220Z,0.37
2019-02-10T14:25:14.757Z,0.90
2019-02-10T14:27:43.238Z,0.50
2019-02-10T14:30:14.687Z,0.40
2019-02-10T14:32:43.078Z,0.50
2019-02-10T14:35:11.427Z,0.60
2019-02-10T14:37:40.233Z,0.30
2019-02-10T14:40:08.949Z,0.60
2019-02-10T14:42:37.588Z,0.40
2019-02-10T14:45:09.357Z,0.30
2019-02-10T14:47:37.854Z,0.40
2019-02-10T14:50:09.420Z,0.60
2019-02-10T14:52:37.717Z,0.40
2019-02-10T14:55:06.179Z,0.50
2019-02-10T14:57:34.558Z,0.33
2019-02-10T15:00:03.418Z,0.50
2019-02-10T15:02:31.737Z,0.80
2019-02-10T15:05:00.105Z,0.33
2019-02-10T15:07:28.981Z,0.40
2019-02-10T15:09:57.746Z,0.40
2019-02-10T15:12:26.337Z,0.50
2019-02-10T15:14:55.239Z,0.33
2019-02-10T15:17:24.379Z,0.40
2019-02-10T15:19:52.767Z,0.37
2019-02-10T15:22:21.152Z,0.40
2019-02-10T15:24:49.602Z,0.40
2019-02-10T15:27:18.095Z,0.33
2019-02-10T15:29:46.866Z,0.40
2019-02-10T15:32:16.894Z,0.67
2019-02-10T15:34:45.311Z,0.30
2019-02-10T15:37:13.842Z,0.40
2019-02-10T15:39:42.201Z,0.60
2019-02-10T15:42:10.850Z,0.40
2019-02-10T15:44:39.511Z,0.60
2019-02-10T15:47:07.932Z,0.50
2019-02-10T15:49:36.262Z,0.40
2019-02-10T15:52:04.615Z,0.53
2019-02-10T15:54:33.076Z,0.40
2019-02-10T15:57:01.391Z,0.40
2019-02-10T15:59:29.765Z,0.50
2019-02-10T16:01:58.149Z,0.30
2019-02-10T16:04:26.614Z,0.57
2019-02-10T16:06:55.008Z,0.53
2019-02-10T16:09:23.383Z,0.67
2019-02-10T16:11:51.766Z,0.50
2019-02-10T16:14:20.160Z,0.40
2019-02-10T16:16:48.552Z,0.67
2019-02-10T16:19:17.038Z,0.40
2019-02-10T16:21:45.422Z,0.40
2019-02-10T16:24:13.824Z,0.30
2019-02-10T16:26:42.111Z,0.40
2019-02-10T16:29:10.524Z,0.37
2019-02-10T16:31:38.868Z,0.60
2019-02-10T16:34:07.194Z,0.77
2019-02-10T16:36:35.551Z,0.40
2019-02-10T16:39:06.119Z,0.47
2019-02-10T16:41:35.581Z,0.50
2019-02-10T16:44:04.133Z,0.60
2019-02-10T16:46:32.529Z,0.73
2019-02-10T16:49:00.886Z,0.30
2019-02-10T16:51:29.405Z,0.40
2019-02-10T16:53:59.326Z,0.37
2019-02-10T16:56:27.716Z,0.53
2019-02-10T16:58:56.158Z,0.40
2019-02-10T17:01:24.692Z,0.30
2019-02-10T17:03:53.219Z,1.10
2019-02-10T17:06:21.761Z,0.50
2019-02-10T17:08:50.059Z,0.40
2019-02-10T17:11:18.487Z,0.97
2019-02-10T17:13:46.863Z,0.30
2019-02-10T17:16:15.268Z,0.33
2019-02-10T17:18:43.651Z,0.37
2019-02-10T17:21:11.961Z,0.33
2019-02-10T17:23:40.366Z,0.40
2019-02-10T17:26:08.712Z,0.37
2019-02-10T17:28:37.019Z,0.77
2019-02-10T17:31:05.479Z,0.40
2019-02-10T17:33:33.780Z,0.37
2019-02-10T17:36:02.148Z,0.50
2019-02-10T17:38:30.448Z,0.43
2019-02-10T17:41:13.281Z,0.50
2019-02-10T17:43:41.756Z,0.60
2019-02-10T17:46:10.046Z,0.80
2019-02-10T17:48:38.360Z,0.33
2019-02-10T17:51:06.735Z,0.40
2019-02-10T17:53:36.094Z,0.50
2019-02-10T17:56:04.635Z,0.97
2019-02-10T17:58:33.047Z,0.87
2019-02-10T18:01:01.406Z,0.67
2019-02-10T18:03:29.790Z,0.30
2019-02-10T18:05:58.151Z,0.83
2019-02-10T18:08:26.476Z,0.67
2019-02-10T18:10:54.998Z,0.80
2019-02-10T18:13:23.372Z,1.03
2019-02-10T18:16:08.538Z,0.40
2019-02-10T18:18:54.934Z,0.40
2019-02-10T18:21:27.952Z,0.33
2019-02-10T18:24:03.950Z,1.40
2019-02-10T18:26:43.281Z,0.67
2019-02-10T18:29:16.138Z,1.10
2019-02-10T18:31:51.963Z,0.40
2019-02-10T18:34:36.948Z,0.50
2019-02-10T18:37:23.755Z,0.40
2019-02-10T18:39:56.689Z,0.50
2019-02-10T18:42:26.689Z,4.93
2019-02-10T18:44:56.699Z,3.67
2019-02-10T18:47:43.046Z,5.30
2019-02-10T18:50:12.983Z,4.60
2019-02-10T18:52:51.882Z,4.80
2019-02-10T18:55:30.644Z,4.90
2019-02-10T18:58:15.583Z,3.10
2019-02-10T19:01:02.003Z,3.57
2019-02-10T19:03:32.034Z,4.70
2019-02-10T19:06:18.154Z,4.93
2019-02-10T19:09:03.428Z,3.73
2019-02-10T19:11:47.387Z,3.83
2019-02-10T19:14:15.179Z,3.17
2019-02-10T19:16:47.890Z,3.00
2019-02-10T19:19:34.378Z,3.07
2019-02-10T19:22:20.725Z,3.10
2019-02-10T19:24:50.854Z,2.97
2019-02-10T19:27:23.887Z,4.67
2019-02-10T19:30:09.086Z,3.37
2019-02-10T19:32:41.642Z,2.23
2019-02-10T19:35:14.323Z,3.27
2019-02-10T19:37:47.419Z,2.53
2019-02-10T19:40:20.413Z,3.60
2019-02-10T19:42:53.110Z,2.57
2019-02-10T19:45:32.102Z,2.60
2019-02-10T19:48:11.044Z,2.43
2019-02-10T19:50:59.252Z,2.83
2019-02-10T19:53:30.562Z,3.37
2019-02-10T19:56:06.351Z,1.97
2019-02-10T19:58:42.337Z,2.30
2019-02-10T20:01:21.067Z,2.83
2019-02-10T20:03:53.766Z,2.33
2019-02-10T20:06:32.579Z,2.47
2019-02-10T20:09:18.815Z,1.47
2019-02-10T20:11:54.664Z,1.97
2019-02-10T20:14:27.460Z,2.67
2019-02-10T20:16:57.380Z,2.43
2019-02-10T20:19:39.041Z,1.60
2019-02-10T20:22:24.282Z,1.50
2019-02-10T20:25:09.402Z,1.47
2019-02-10T20:27:41.903Z,2.30
2019-02-10T20:30:14.958Z,1.63
2019-02-10T20:32:47.937Z,1.53
2019-02-10T20:35:23.758Z,2.80
2019-02-10T20:37:53.763Z,1.83
2019-02-10T20:40:23.787Z,1.40
2019-02-10T20:43:10.289Z,1.70
2019-02-10T20:45:40.375Z,1.77
2019-02-10T20:48:13.124Z,1.20
2019-02-10T20:50:59.361Z,1.93
2019-02-10T20:53:29.345Z,1.70
2019-02-10T20:55:59.357Z,1.80
2019-02-10T20:58:29.439Z,1.60
2019-02-10T21:00:59.495Z,1.10
2019-02-10T21:03:32.411Z,2.23
2019-02-10T21:06:17.315Z,1.87
2019-02-10T21:08:53.099Z,1.63
2019-02-10T21:11:23.047Z,1.80
2019-02-10T21:13:53.075Z,2.10
2019-02-10T21:16:39.703Z,1.10
2019-02-10T21:19:09.731Z,1.73
2019-02-10T21:21:42.687Z,1.20
2019-02-10T21:24:15.467Z,1.37
2019-02-10T21:26:48.429Z,1.13
2019-02-10T21:29:34.545Z,1.60
2019-02-10T21:32:04.594Z,1.10
2019-02-10T21:34:43.538Z,1.03
2019-02-10T21:37:16.395Z,1.57
2019-02-10T21:39:46.326Z,1.43
2019-02-10T21:42:29.253Z,0.70
2019-02-10T21:45:15.924Z,1.80
2019-02-10T21:47:45.939Z,1.40
2019-02-10T21:50:14.412Z,0.90
2019-02-10T21:52:42.786Z,1.47
2019-02-10T21:55:11.328Z,2.07
2019-02-10T21:57:39.695Z,0.70
2019-02-10T22:00:11.622Z,0.90
2019-02-10T22:02:40.057Z,1.10
2019-02-10T22:05:08.345Z,0.90
2019-02-10T22:07:36.660Z,1.10
2019-02-10T22:10:10.885Z,1.00
2019-02-10T22:12:39.711Z,1.50
2019-02-10T22:15:10.089Z,0.80
2019-02-10T22:17:38.486Z,1.30
2019-02-10T22:20:12.736Z,1.00
2019-02-10T22:22:41.084Z,0.93
2019-02-10T22:25:11.205Z,0.80
2019-02-10T22:27:39.602Z,1.03
2019-02-10T22:30:15.546Z,0.90
2019-02-10T22:32:43.834Z,0.57
2019-02-10T22:35:12.189Z,0.80
2019-02-10T22:37:40.486Z,1.13
2019-02-10T22:40:11.003Z,1.00
2019-02-10T22:42:45.475Z,1.00
2019-02-10T22:45:12.981Z,0.73
2019-02-10T22:47:41.333Z,0.70
2019-02-10T22:50:12.321Z,0.70
2019-02-10T22:52:40.809Z,1.10
2019-02-10T22:55:09.083Z,1.13
2019-02-10T22:57:37.473Z,0.90
2019-02-10T23:00:39.405Z,0.80
2019-02-10T23:03:07.700Z,0.70
2019-02-10T23:05:36.070Z,0.70
2019-02-10T23:08:04.415Z,0.77
2019-02-10T23:10:32.715Z,1.10
2019-02-10T23:13:00.994Z,0.97
2019-02-10T23:15:29.301Z,1.50
2019-02-10T23:17:57.576Z,0.80
2019-02-10T23:20:25.888Z,0.80
2019-02-10T23:22:54.235Z,1.10
2019-02-10T23:25:22.615Z,0.80
2019-02-10T23:27:50.935Z,1.10
2019-02-10T23:30:19.277Z,0.97
2019-02-10T23:32:47.656Z,0.60
2019-02-10T23:35:16.042Z,1.00
2019-02-10T23:37:44.350Z,1.03
2019-02-10T23:40:12.975Z,0.70
2019-02-10T23:42:41.361Z,0.83
2019-02-10T23:45:09.830Z,1.00
2019-02-10T23:47:38.266Z,0.70
2019-02-10T23:50:07.876Z,0.60
2019-02-10T23:52:36.246Z,1.07
2019-02-10T23:55:05.265Z,0.67
2019-02-10T23:57:33.624Z,1.13
